Granby Valley, Vermont
Current Conditions -  °F | °C
As of 1:35 AM on Saturday 25 Oct 2014 (Local Time) from KCDA Reporting Station
Clear Clear  
Wind Chill: 37°   Ceiling: Unl
Heat Index: 37°   Visibility: 10mi
Dew Point: 33°   Wind: 3mph
Humidity: 86%   Direction: 240°WSW
Pressure: 29.79"   Gusts: NA
Location:  44.5627°N, 71.7775°W
Report Text: KCDA 250535Z AUTO 24003KT 10SM CLR 03/01 A2979 RMK AO2 T00270005
Loading
Personal Weather Stations






























Interactive Weather Map
Tropical Storm Tracking
New forecast layout! Learn more

10-Day Weather Forecast

Advertisements
Track Severe Weather on mobile